Avon, New Jersey
Current Conditions -  °F | °C
As of 7:55 PM on Saturday 20 Dec 2014 (Local Time) from KBLM Reporting Station
Broken Clouds Broken Clouds  
Wind Chill: 25°   Ceiling: 2800
Heat Index: 30°   Visibility: 10mi
Dew Point: 18°   Wind: 5mph
Humidity: 60%   Direction: 310°NW
Pressure: 30.28"   Gusts: NA
Location:  40.1917°N, 74.0159°W
Report Text: KBLM 210055Z AUTO 31004KT 10SM BKN028 M01/M08 A3028 RMK AO1
Loading
Personal Weather Stations






























Interactive Weather Map New forecast layout! Learn more

10-Day Weather Forecast

Advertisements
Track Severe Weather on mobile